Flight Track Log - Related Links

Times and Time Zones

All times are in EDT time to prevent confusion due to time zone crossing. See the SKW4444 flight status page for this flight to view local times or setup timezone preferences in your user account.

Time Position Orientation Groundspeed Altitude Reporting Facility
EDT Latitude Longitude Course Direction KTS MPH feet Rate Location/Type
Sun 10:20:31 PM 40.8675 -111.9711 114° Southeast 204 235 7,400  Level Salt Lake Center
Sun 10:21:32 PM 40.9361 -111.9794 355° North 241 277 10,400 2,390 Climbing Salt Lake Center
Sun 10:22:00 PM 41.0951 -111.7523 153° Southeast  Level FlightAware Approximate
Sun 10:22:34 PM 40.9781 -111.9094 52° Northeast 288 331 12,300  Level Salt Lake Center
Sun 10:23:00 PM 40.9743 -111.6871 159° South  Level FlightAware Approximate
Sun 10:23:35 PM 40.9389 -111.8083 117° Southeast 324 373 14,100  Level Salt Lake Center
Sun 10:24:00 PM 40.8522 -111.6261 159° South  Level FlightAware Approximate
Sun 10:24:36 PM 40.8975 -111.6953 116° Southeast 344 396 16,100  Level Salt Lake Center
Sun 10:25:00 PM 40.8034 -111.4769 114° Southeast  Level FlightAware Approximate
Sun 10:25:38 PM 40.8561 -111.5786 115° Southeast 353 406 18,300  Level Salt Lake Center
Sun 10:26:39 PM 40.8144 -111.4611 115° Southeast 356 410 20,200 2,115 Climbing Salt Lake Center
Sun 10:27:40 PM 40.7728 -111.3083 110° East 371 427 22,600 1,854 Climbing Salt Lake Center
Sun 10:28:42 PM 40.7433 -111.1775 107° East 371 427 24,000 1,415 Climbing Salt Lake Center
Sun 10:29:43 PM 40.7119 -111.0411 107° East 383 441 25,500 1,475 Climbing Salt Lake Center
Sun 10:30:44 PM 40.6786 -110.9017 107° East 396 456 27,000 1,463 Climbing Salt Lake Center
Sun 10:31:46 PM 40.6458 -110.7614 107° East 401 461 28,500 1,271 Climbing Salt Lake Center
Sun 10:33:34 PM 40.5831 -110.4914 107° East 407 468 30,600 959 Climbing Denver Center
Sun 10:34:35 PM 40.5506 -110.3522 107° East 415 478 31,200 553 Climbing Denver Center
Sun 10:34:50 PM 40.5397 -110.3053 107° East 420 483 31,300 474 Climbing Salt Lake Center
Sun 10:35:51 PM 40.5097 -110.1564 105° East 437 503 31,800 488 Climbing Salt Lake Center
Sun 10:36:53 PM 40.4817 -110.0031 103° East 447 514 32,300 537 Climbing Salt Lake Center
Sun 10:37:54 PM 40.4469 -109.8214 104° East 458 527 32,900 639 Climbing Salt Lake Center
Sun 10:38:55 PM 40.4172 -109.6633 104° East 464 534 33,600 683 Climbing Salt Lake Center
Sun 10:39:57 PM 40.3864 -109.5069 104° East 463 533 34,300 634 Climbing Salt Lake Center
Sun 10:40:58 PM 40.3494 -109.3225 105° East 468 539 34,900 634 Climbing Salt Lake Center
Sun 10:42:00 PM 40.3183 -109.1628 104° East 471 542 35,600 617 Climbing Salt Lake Center
Sun 10:42:45 PM 40.2931 -109.0283 104° East 468 539 36,000 509 Climbing Denver Center
Sun 10:43:46 PM 40.2614 -108.8678 104° East 471 542 36,500 545 Climbing Denver Center
Sun 10:44:02 PM 40.2508 -108.8161 105° East 473 544 36,700 538 Climbing Salt Lake Center
Sun 10:45:04 PM 40.2175 -108.6561 105° East 474 545 37,200 509 Climbing Salt Lake Center
Sun 10:45:48 PM 40.1900 -108.5192 105° East 476 548 37,600 509 Climbing Denver Center
Sun 10:46:50 PM 40.1578 -108.3600 105° East 472 543 38,100 488 Climbing Denver Center
Sun 10:47:51 PM 40.1189 -108.1753 105° East 469 540 38,600 443 Climbing Denver Center
Sun 10:48:52 PM 40.0869 -108.0194 105° East 465 535 39,000 179 Climbing Denver Center
Sun 10:50:05 PM 40.0464 -107.8692 109° East 460 529 39,000  Level Denver Center
Sun 10:51:06 PM 39.9683 -107.6761 118° Southeast 468 539 39,000  Level Denver Center
Sun 10:52:07 PM 39.9114 -107.5300 117° Southeast 471 542 39,000  Level Denver Center
Sun 10:53:09 PM 39.8433 -107.3589 117° Southeast 475 547 39,000  Level Denver Center
Sun 10:54:10 PM 39.7844 -107.2156 118° Southeast 469 540 39,000  Level Denver Center
Sun 10:55:11 PM 39.7297 -107.0792 118° Southeast 468 539 39,000  Level Denver Center
Sun 10:56:12 PM 39.6592 -106.9083 118° Southeast 462 532 39,000  Level Denver Center
Sun 10:57:13 PM 39.6022 -106.7661 117° Southeast 462 532 39,000  Level Denver Center
Sun 10:58:15 PM 39.5342 -106.6017 118° Southeast 463 533 39,000  Level Denver Center
Sun 10:59:16 PM 39.4839 -106.4783 118° Southeast 467 537 39,000  Level Denver Center
Sun 11:00:17 PM 39.4217 -106.3278 118° Southeast 472 543 39,000  Level Denver Center
Sun 11:01:18 PM 39.3461 -106.1469 118° Southeast 475 547 39,000  Level Denver Center
Sun 11:02:19 PM 39.2839 -105.9928 118° Southeast 479 551 39,000  Level Denver Center
Sun 11:03:20 PM 39.2203 -105.8411 118° Southeast 480 552 39,000  Level Denver Center
Sun 11:04:21 PM 39.1564 -105.6886 118° Southeast 482 555 39,000  Level Denver Center
Sun 11:05:22 PM 39.0936 -105.5417 119° Southeast 480 552 39,000  Level Denver Center
Sun 11:06:23 PM 39.0306 -105.3997 120° Southeast 477 549 39,000  Level Denver Center
Sun 11:07:24 PM 38.9597 -105.2331 119° Southeast 475 547 39,000  Level Denver Center
Sun 11:08:25 PM 38.8997 -105.0900 118° Southeast 475 547 39,000  Level Denver Center
Sun 11:09:26 PM 38.8397 -104.9475 118° Southeast 474 545 39,000  Level Denver Center
Sun 11:10:27 PM 38.7681 -104.7833 119° Southeast 472 543 39,000  Level Denver Center
Sun 11:11:28 PM 38.7069 -104.6439 119° Southeast 469 540 39,000  Level Denver Center
Sun 11:12:29 PM 38.6350 -104.4819 120° Southeast 469 540 39,000  Level Denver Center
Sun 11:13:30 PM 38.5722 -104.3408 120° Southeast 472 543 39,000  Level Denver Center
Sun 11:14:31 PM 38.5111 -104.2003 119° Southeast 472 543 39,000  Level Denver Center
Sun 11:15:32 PM 38.4372 -104.0381 120° Southeast 471 542 39,000  Level Denver Center
Sun 11:16:33 PM 38.3739 -103.8975 120° Southeast 474 545 39,000  Level Denver Center
Sun 11:17:34 PM 38.3094 -103.7547 120° Southeast 479 551 39,000  Level Denver Center
Sun 11:18:35 PM 38.2353 -103.5883 120° Southeast 482 555 39,000  Level Denver Center
Sun 11:19:36 PM 38.1694 -103.4453 120° Southeast 486 559 39,000  Level Denver Center
Sun 11:20:37 PM 38.1047 -103.3008 120° Southeast 488 562 39,000  Level Denver Center
Sun 11:21:37 PM 38.0283 -103.1328 120° Southeast 490 564 39,000  Level Denver Center
Sun 11:22:38 PM 37.9628 -102.9894 120° Southeast 489 563 39,000  Level Denver Center
Sun 11:23:51 PM 37.8958 -102.8464 121° Southeast 490 564 39,000  Level Denver Center
Sun 11:24:52 PM 37.8075 -102.6564 120° Southeast 490 564 39,000  Level Denver Center
Sun 11:25:53 PM 37.7417 -102.5144 120° Southeast 488 562 39,000  Level Denver Center
Sun 11:26:54 PM 37.6661 -102.3531 121° Southeast 486 559 39,000  Level Denver Center
Sun 11:27:55 PM 37.6011 -102.2139 120° Southeast 484 557 39,000  Level Denver Center
Sun 11:28:56 PM 37.5353 -102.0756 121° Southeast 483 556 39,000  Level Denver Center
Sun 11:29:57 PM 37.4594 -101.9153 121° Southeast 480 552 39,000  Level Denver Center
Sun 11:30:24 PM 37.4272 -101.8458 120° Southeast 479 551 39,000  Level Kansas City Center
Sun 11:31:25 PM 37.3647 -101.7089 120° Southeast 477 549 39,000 -49 Level Kansas City Center
Sun 11:32:26 PM 37.3017 -101.5714 120° Southeast 476 548 38,900 -639 Descending Kansas City Center
Sun 11:33:27 PM 37.2244 -101.4056 120° Southeast 489 563 37,700 -1,033 Descending Kansas City Center
Sun 11:34:28 PM 37.1558 -101.2564 120° Southeast 507 583 36,800 -934 Descending Kansas City Center
Sun 11:35:29 PM 37.0861 -101.1083 121° Southeast 516 594 35,800 -885 Descending Kansas City Center
Sun 11:36:30 PM 37.0081 -100.9408 120° Southeast 507 583 35,000 -393 Descending Kansas City Center
Sun 11:37:31 PM 36.9392 -100.7969 121° Southeast 506 582 35,000  Level Kansas City Center
Sun 11:38:32 PM 36.8600 -100.6292 120° Southeast 505 581 35,000  Level Kansas City Center
Sun 11:39:33 PM 36.7933 -100.4894 121° Southeast 496 571 35,000  Level Kansas City Center
Sun 11:40:34 PM 36.7269 -100.3503 121° Southeast 486 559 35,000  Level Kansas City Center
Sun 11:41:35 PM 36.6583 -100.2097 121° Southeast 476 548 35,000  Level Kansas City Center
Sun 11:42:36 PM 36.5908 -100.0667 120° Southeast 477 549 35,000 49 Level Kansas City Center
Sun 11:43:37 PM 36.5219 -99.9253 121° Southeast 477 549 35,100 -49 Climbing Kansas City Center
Sun 11:44:38 PM 36.4522 -99.7853 122° Southeast 476 548 34,900 -1,230 Descending Kansas City Center
Sun 11:45:39 PM 36.3806 -99.6408 122° Southeast 485 558 32,600 -2,231 Descending Kansas City Center
Sun 11:46:39 PM 36.3067 -99.4881 121° Southeast 509 586 30,400 -2,331 Descending Kansas City Center
Sun 11:47:40 PM 36.2269 -99.3256 121° Southeast 518 596 27,900 -2,410 Descending Kansas City Center
Sun 11:48:41 PM 36.1542 -99.1767 121° Southeast 510 587 25,500 -2,311 Descending Kansas City Center
Sun 11:49:42 PM 36.0839 -99.0339 121° Southeast 493 567 23,200 -1,721 Descending Kansas City Center
Sun 11:50:43 PM 36.0178 -98.9050 122° Southeast 453 521 22,000 -1,475 Descending Kansas City Center
Sun 11:51:44 PM 35.9628 -98.7933 121° Southeast 392 451 20,200 -2,066 Descending Kansas City Center
Sun 11:52:45 PM 35.9056 -98.6803 122° Southeast 377 434 17,800 -2,367 Descending Kansas City Center
Sun 11:53:33 PM 35.8533 -98.5786 122° Southeast 379 436 15,900 -2,133 Descending Fort Worth Center
Sun 11:54:15 PM 35.8144 -98.5014 122° Southeast 377 434 14,600 -1,700 Descending Fort Worth Center
Sun 11:54:33 PM 35.8061 -98.4756 112° Southeast 370 426 14,200 -1,967 Descending Fort Worth Center
Sun 11:55:16 PM 35.7694 -98.3933 119° Southeast 365 420 12,600 -2,000 Descending Fort Worth Center
Sun 11:55:33 PM 35.7653 -98.3650 100° East 364 419 12,200 -1,600 Descending Fort Worth Center
Sun 11:56:16 PM 35.7494 -98.2678 101° East 334 384 11,000 -1,300 Descending Fort Worth Center
Sun 11:56:33 PM 35.7494 -98.2525 90° East 343 395 10,900 -1,475 Descending Fort Worth Center
Sun 11:57:17 PM 35.7333 -98.1603 102° East 324 373 9,500 -1,600 Descending Fort Worth Center
Sun 11:57:33 PM 35.7356 -98.1447 80° East 331 381 9,300 -1,400 Descending Fort Worth Center
Sun 11:58:17 PM 35.7172 -98.0500 103° East 322 371 8,100 -1,400 Descending Fort Worth Center
Sun 11:58:33 PM 35.7175 -98.0347 89° East 326 375 7,900 -1,279 Descending Fort Worth Center
Sun 11:59:18 PM 35.6992 -97.9453 104° East 316 364 6,800 -1,400 Descending Fort Worth Center
Sun 11:59:33 PM 35.6950 -97.9247 104° East 312 359 6,500 -984 Descending Fort Worth Center
Mon 12:00:19 AM 35.6786 -97.8531 106° East 267 307 5,800 -962 Descending Fort Worth Center
Mon 12:01:19 AM 35.6642 -97.7714 102° East 243 280 4,800 -942 Descending Fort Worth Center
Mon 12:02:20 AM 35.6269 -97.7200 132° Southeast 202 232 3,900 -942 Descending Fort Worth Center
Mon 12:03:20 AM 35.5853 -97.6867 147° Southeast 170 196 2,900 -496 Descending Fort Worth Center
Mon 12:04:21 AM 35.5458 -97.6533 145° Southeast 168 193 2,900 -49 Level Fort Worth Center
Mon 12:05:22 AM 35.5061 -97.6200 146° Southeast 161 185 2,800 -98 Descending Fort Worth Center

Login

Don't have an account? Register now (free) for customized features, flight alerts, and more!